KBFF/BFF METAR and TAF weather

Enter ICAO airport designator
Station Type Date Time Source
KBFF METAR 2022/12/10 01:53 UTC NOAA

KBFF 100153Z AUTO 33005KT 10SM CLR M04/M09 A2996 RMK AO2 SLP200 T10391089


Station Type Date Time Source
KBFF Decoded METAR 2022/12/10 01:53 UTC NOAA

SCOTTSBLUFF HEILIG FIELD, NE, United States (KBFF) 41-52N 103-36W 1203M
Dec 09, 2022 - 08:53 PM EST / 2022.12.10 0153 UTC
Wind: from the NNW (330 degrees) at 6 MPH (5 KT):0
Visibility: 10 mile(s):0
Sky conditions: clear
Temperature: 25.0 F (-3.9 C)
Windchill: 17 F (-8 C):1
Dew Point: 16.0 F (-8.9 C)
Relative Humidity: 68%
Pressure (altimeter): 29.96 in. Hg (1014 hPa)
ob: KBFF 100153Z AUTO 33005KT 10SM CLR M04/M09 A2996 RMK AO2 SLP200 T10391089
cycle: 2

Station Type Date Time Source
KBFF TAF 2022/12/09 18:34 UTC NOAA

TAF KBFF 091732Z 0918/1018 12011KT P6SM BKN150
FM100500 29012G20KT P6SM SKC
FM100900 31010KT P6SM SKC

Example: see airport list